sensor_id;sensor_type;location;lat;lon;timestamp;temperature;humidity
24144;DHT22;12307;50.828;6.080;2023-04-01T00:01:32;19.30;60.20
24144;DHT22;12307;50.828;6.080;2023-04-01T00:03:58;19.30;60.30
24144;DHT22;12307;50.828;6.080;2023-04-01T00:06:25;19.30;60.20
24144;DHT22;12307;50.828;6.080;2023-04-01T00:08:51;19.30;60.30
24144;DHT22;12307;50.828;6.080;2023-04-01T00:11:18;19.30;60.40
24144;DHT22;12307;50.828;6.080;2023-04-01T00:13:44;19.30;60.30
24144;DHT22;12307;50.828;6.080;2023-04-01T00:16:10;19.30;60.30
24144;DHT22;12307;50.828;6.080;2023-04-01T00:18:36;19.30;60.30
24144;DHT22;12307;50.828;6.080;2023-04-01T00:21:01;19.30;60.30
24144;DHT22;12307;50.828;6.080;2023-04-01T00:23:28;19.30;60.30
24144;DHT22;12307;50.828;6.080;2023-04-01T00:25:54;19.30;60.40
24144;DHT22;12307;50.828;6.080;2023-04-01T00:28:20;19.20;60.20
24144;DHT22;12307;50.828;6.080;2023-04-01T00:30:46;19.30;60.30
24144;DHT22;12307;50.828;6.080;2023-04-01T00:33:12;19.20;60.20
24144;DHT22;12307;50.828;6.080;2023-04-01T00:35:38;19.30;60.30
24144;DHT22;12307;50.828;6.080;2023-04-01T00:38:04;19.20;60.30
24144;DHT22;12307;50.828;6.080;2023-04-01T00:40:33;19.30;60.30
24144;DHT22;12307;50.828;6.080;2023-04-01T00:43:01;19.20;60.30
24144;DHT22;12307;50.828;6.080;2023-04-01T00:45:33;19.20;60.30
24144;DHT22;12307;50.828;6.080;2023-04-01T00:48:02;19.20;60.30
24144;DHT22;12307;50.828;6.080;2023-04-01T00:50:30;19.20;60.30
24144;DHT22;12307;50.828;6.080;2023-04-01T00:52:57;19.20;60.30
24144;DHT22;12307;50.828;6.080;2023-04-01T00:55:25;19.20;60.30
24144;DHT22;12307;50.828;6.080;2023-04-01T00:57:53;19.20;60.30
24144;DHT22;12307;50.828;6.080;2023-04-01T01:00:21;19.20;60.30
24144;DHT22;12307;50.828;6.080;2023-04-01T01:02:49;19.20;60.30
24144;DHT22;12307;50.828;6.080;2023-04-01T01:05:16;19.20;60.30
24144;DHT22;12307;50.828;6.080;2023-04-01T01:07:49;19.20;60.30
24144;DHT22;12307;50.828;6.080;2023-04-01T01:10:19;19.20;60.30
24144;DHT22;12307;50.828;6.080;2023-04-01T01:12:48;19.20;60.30
24144;DHT22;12307;50.828;6.080;2023-04-01T01:15:22;19.20;60.30
24144;DHT22;12307;50.828;6.080;2023-04-01T01:17:56;19.20;60.30
24144;DHT22;12307;50.828;6.080;2023-04-01T01:20:48;19.20;60.30
24144;DHT22;12307;50.828;6.080;2023-04-01T01:23:39;19.20;60.30
24144;DHT22;12307;50.828;6.080;2023-04-01T01:26:28;19.20;60.30
24144;DHT22;12307;50.828;6.080;2023-04-01T01:29:04;19.20;60.40
24144;DHT22;12307;50.828;6.080;2023-04-01T01:31:36;19.20;60.30
24144;DHT22;12307;50.828;6.080;2023-04-01T01:34:11;19.20;60.30
24144;DHT22;12307;50.828;6.080;2023-04-01T01:36:45;19.20;60.40
24144;DHT22;12307;50.828;6.080;2023-04-01T01:39:14;19.20;60.40
24144;DHT22;12307;50.828;6.080;2023-04-01T01:41:41;19.20;61.20
24144;DHT22;12307;50.828;6.080;2023-04-01T01:44:09;19.20;60.40
24144;DHT22;12307;50.828;6.080;2023-04-01T01:46:37;19.20;60.40
24144;DHT22;12307;50.828;6.080;2023-04-01T01:49:05;19.20;60.40
24144;DHT22;12307;50.828;6.080;2023-04-01T01:51:33;19.20;60.50
24144;DHT22;12307;50.828;6.080;2023-04-01T01:54:00;19.20;60.40
24144;DHT22;12307;50.828;6.080;2023-04-01T01:56:27;19.20;60.40
24144;DHT22;12307;50.828;6.080;2023-04-01T01:58:58;19.20;60.50
24144;DHT22;12307;50.828;6.080;2023-04-01T02:01:27;19.20;60.40
24144;DHT22;12307;50.828;6.080;2023-04-01T02:03:55;19.20;60.40
24144;DHT22;12307;50.828;6.080;2023-04-01T02:06:26;19.20;60.40
24144;DHT22;12307;50.828;6.080;2023-04-01T02:08:55;19.20;60.40
24144;DHT22;12307;50.828;6.080;2023-04-01T02:11:27;19.20;60.40
24144;DHT22;12307;50.828;6.080;2023-04-01T02:13:55;19.20;60.40
24144;DHT22;12307;50.828;6.080;2023-04-01T02:16:25;19.20;60.40
24144;DHT22;12307;50.828;6.080;2023-04-01T02:18:55;19.20;60.40
24144;DHT22;12307;50.828;6.080;2023-04-01T02:21:24;19.20;60.40
24144;DHT22;12307;50.828;6.080;2023-04-01T02:23:54;19.20;60.40
24144;DHT22;12307;50.828;6.080;2023-04-01T02:26:24;19.20;60.40
24144;DHT22;12307;50.828;6.080;2023-04-01T02:28:52;19.20;60.40
24144;DHT22;12307;50.828;6.080;2023-04-01T02:31:18;19.20;60.40
24144;DHT22;12307;50.828;6.080;2023-04-01T02:33:45;19.20;60.40
24144;DHT22;12307;50.828;6.080;2023-04-01T02:36:13;19.10;60.30
24144;DHT22;12307;50.828;6.080;2023-04-01T02:38:39;19.20;60.40
24144;DHT22;12307;50.828;6.080;2023-04-01T02:41:05;19.20;60.40
24144;DHT22;12307;50.828;6.080;2023-04-01T02:43:32;19.20;60.40
24144;DHT22;12307;50.828;6.080;2023-04-01T02:45:58;19.10;60.30
24144;DHT22;12307;50.828;6.080;2023-04-01T02:48:24;19.20;60.40
24144;DHT22;12307;50.828;6.080;2023-04-01T02:50:50;19.20;60.40
24144;DHT22;12307;50.828;6.080;2023-04-01T02:53:16;19.20;60.40
24144;DHT22;12307;50.828;6.080;2023-04-01T02:55:43;19.10;60.30
24144;DHT22;12307;50.828;6.080;2023-04-01T02:58:08;19.10;60.30
24144;DHT22;12307;50.828;6.080;2023-04-01T03:00:36;19.10;60.40
24144;DHT22;12307;50.828;6.080;2023-04-01T03:03:01;19.10;60.30
24144;DHT22;12307;50.828;6.080;2023-04-01T03:05:28;19.10;60.40
24144;DHT22;12307;50.828;6.080;2023-04-01T03:07:54;19.10;60.30
24144;DHT22;12307;50.828;6.080;2023-04-01T03:10:20;19.10;60.30
24144;DHT22;12307;50.828;6.080;2023-04-01T03:12:46;19.20;60.40
24144;DHT22;12307;50.828;6.080;2023-04-01T03:15:13;19.20;60.40
24144;DHT22;12307;50.828;6.080;2023-04-01T03:17:42;19.10;60.30
24144;DHT22;12307;50.828;6.080;2023-04-01T03:20:09;19.10;60.30
24144;DHT22;12307;50.828;6.080;2023-04-01T03:22:36;19.10;60.30
24144;DHT22;12307;50.828;6.080;2023-04-01T03:25:03;19.10;60.40
24144;DHT22;12307;50.828;6.080;2023-04-01T03:27:28;19.10;60.30
24144;DHT22;12307;50.828;6.080;2023-04-01T03:29:54;19.10;60.30
24144;DHT22;12307;50.828;6.080;2023-04-01T03:32:20;19.10;60.30
24144;DHT22;12307;50.828;6.080;2023-04-01T03:34:47;19.10;60.40
24144;DHT22;12307;50.828;6.080;2023-04-01T03:37:13;19.10;60.40
24144;DHT22;12307;50.828;6.080;2023-04-01T03:39:39;19.10;60.30
24144;DHT22;12307;50.828;6.080;2023-04-01T03:42:05;19.10;60.40
24144;DHT22;12307;50.828;6.080;2023-04-01T03:44:32;19.10;60.30
24144;DHT22;12307;50.828;6.080;2023-04-01T03:46:58;19.10;60.40
24144;DHT22;12307;50.828;6.080;2023-04-01T03:49:24;19.10;60.30
24144;DHT22;12307;50.828;6.080;2023-04-01T03:51:51;19.10;60.40
24144;DHT22;12307;50.828;6.080;2023-04-01T03:54:17;19.10;60.40
24144;DHT22;12307;50.828;6.080;2023-04-01T03:56:43;19.10;60.50
24144;DHT22;12307;50.828;6.080;2023-04-01T03:59:09;19.10;60.40
24144;DHT22;12307;50.828;6.080;2023-04-01T04:01:35;19.10;60.40
24144;DHT22;12307;50.828;6.080;2023-04-01T04:04:00;19.10;60.40
24144;DHT22;12307;50.828;6.080;2023-04-01T04:06:27;19.10;60.40
24144;DHT22;12307;50.828;6.080;2023-04-01T04:08:54;19.10;60.40
24144;DHT22;12307;50.828;6.080;2023-04-01T04:11:21;19.10;60.40
24144;DHT22;12307;50.828;6.080;2023-04-01T04:13:47;19.10;60.40
24144;DHT22;12307;50.828;6.080;2023-04-01T04:16:14;19.10;60.40
24144;DHT22;12307;50.828;6.080;2023-04-01T04:18:40;19.10;60.50
24144;DHT22;12307;50.828;6.080;2023-04-01T04:21:05;19.10;60.40
24144;DHT22;12307;50.828;6.080;2023-04-01T04:23:31;19.10;60.40
24144;DHT22;12307;50.828;6.080;2023-04-01T04:26:01;19.10;60.50
24144;DHT22;12307;50.828;6.080;2023-04-01T04:28:28;19.10;60.50
24144;DHT22;12307;50.828;6.080;2023-04-01T04:30:54;19.10;60.40
24144;DHT22;12307;50.828;6.080;2023-04-01T04:33:20;19.10;60.50
24144;DHT22;12307;50.828;6.080;2023-04-01T04:35:45;19.10;60.50
24144;DHT22;12307;50.828;6.080;2023-04-01T04:38:11;19.10;60.50
24144;DHT22;12307;50.828;6.080;2023-04-01T04:40:37;19.10;60.50
24144;DHT22;12307;50.828;6.080;2023-04-01T04:43:04;19.10;60.50
24144;DHT22;12307;50.828;6.080;2023-04-01T04:45:30;19.10;60.50
24144;DHT22;12307;50.828;6.080;2023-04-01T04:47:56;19.10;60.50
24144;DHT22;12307;50.828;6.080;2023-04-01T04:50:22;19.10;60.50
24144;DHT22;12307;50.828;6.080;2023-04-01T04:52:48;19.10;60.50
24144;DHT22;12307;50.828;6.080;2023-04-01T04:55:14;19.10;60.50
24144;DHT22;12307;50.828;6.080;2023-04-01T04:57:40;19.10;60.50
24144;DHT22;12307;50.828;6.080;2023-04-01T05:00:08;19.10;60.50
24144;DHT22;12307;50.828;6.080;2023-04-01T05:02:35;19.10;60.50
24144;DHT22;12307;50.828;6.080;2023-04-01T05:05:01;19.10;60.50
24144;DHT22;12307;50.828;6.080;2023-04-01T05:07:27;19.10;60.50
24144;DHT22;12307;50.828;6.080;2023-04-01T05:09:52;19.10;60.50
24144;DHT22;12307;50.828;6.080;2023-04-01T05:12:18;19.10;60.50
24144;DHT22;12307;50.828;6.080;2023-04-01T05:14:44;19.10;60.50
24144;DHT22;12307;50.828;6.080;2023-04-01T05:17:12;19.10;60.50
24144;DHT22;12307;50.828;6.080;2023-04-01T05:19:38;19.10;60.50
24144;DHT22;12307;50.828;6.080;2023-04-01T05:22:05;19.10;60.50
24144;DHT22;12307;50.828;6.080;2023-04-01T05:24:31;19.10;60.50
24144;DHT22;12307;50.828;6.080;2023-04-01T05:26:56;19.10;60.50
24144;DHT22;12307;50.828;6.080;2023-04-01T05:29:23;19.10;60.50
24144;DHT22;12307;50.828;6.080;2023-04-01T05:31:49;19.10;60.50
24144;DHT22;12307;50.828;6.080;2023-04-01T05:34:16;19.10;60.50
24144;DHT22;12307;50.828;6.080;2023-04-01T05:36:42;19.10;60.50
24144;DHT22;12307;50.828;6.080;2023-04-01T05:39:08;19.10;60.50
24144;DHT22;12307;50.828;6.080;2023-04-01T05:41:35;19.10;60.50
24144;DHT22;12307;50.828;6.080;2023-04-01T05:44:01;19.10;60.50
24144;DHT22;12307;50.828;6.080;2023-04-01T05:46:26;19.10;60.50
24144;DHT22;12307;50.828;6.080;2023-04-01T05:48:52;19.10;60.50
24144;DHT22;12307;50.828;6.080;2023-04-01T05:51:19;19.10;60.50
24144;DHT22;12307;50.828;6.080;2023-04-01T05:53:45;19.10;60.50
24144;DHT22;12307;50.828;6.080;2023-04-01T05:56:11;19.10;60.50
24144;DHT22;12307;50.828;6.080;2023-04-01T05:58:37;19.10;60.50
24144;DHT22;12307;50.828;6.080;2023-04-01T06:01:03;19.10;60.50
24144;DHT22;12307;50.828;6.080;2023-04-01T06:03:30;19.10;60.50
24144;DHT22;12307;50.828;6.080;2023-04-01T06:05:55;19.10;60.50
24144;DHT22;12307;50.828;6.080;2023-04-01T06:08:24;19.10;60.50
24144;DHT22;12307;50.828;6.080;2023-04-01T06:11:01;19.10;60.50
24144;DHT22;12307;50.828;6.080;2023-04-01T06:13:39;19.10;60.50
24144;DHT22;12307;50.828;6.080;2023-04-01T06:16:14;19.10;60.50
24144;DHT22;12307;50.828;6.080;2023-04-01T06:18:56;19.10;60.50
24144;DHT22;12307;50.828;6.080;2023-04-01T06:21:56;19.10;60.50
24144;DHT22;12307;50.828;6.080;2023-04-01T06:24:44;19.10;60.40
24144;DHT22;12307;50.828;6.080;2023-04-01T06:27:18;19.10;60.40
24144;DHT22;12307;50.828;6.080;2023-04-01T06:30:02;19.10;60.40
24144;DHT22;12307;50.828;6.080;2023-04-01T06:32:46;19.10;60.40
24144;DHT22;12307;50.828;6.080;2023-04-01T06:35:21;19.10;60.40
24144;DHT22;12307;50.828;6.080;2023-04-01T06:38:01;19.10;60.40
24144;DHT22;12307;50.828;6.080;2023-04-01T06:40:58;19.10;60.40
24144;DHT22;12307;50.828;6.080;2023-04-01T06:43:35;19.10;60.40
24144;DHT22;12307;50.828;6.080;2023-04-01T06:46:09;19.10;60.40
24144;DHT22;12307;50.828;6.080;2023-04-01T06:48:47;19.10;60.40
24144;DHT22;12307;50.828;6.080;2023-04-01T06:51:24;19.10;60.50
24144;DHT22;12307;50.828;6.080;2023-04-01T06:53:56;19.10;60.40
24144;DHT22;12307;50.828;6.080;2023-04-01T06:56:28;19.10;60.40
24144;DHT22;12307;50.828;6.080;2023-04-01T06:58:57;19.20;60.40
24144;DHT22;12307;50.828;6.080;2023-04-01T07:01:28;19.20;60.50
24144;DHT22;12307;50.828;6.080;2023-04-01T07:03:58;19.20;60.40
24144;DHT22;12307;50.828;6.080;2023-04-01T07:06:28;19.20;60.40
24144;DHT22;12307;50.828;6.080;2023-04-01T07:08:58;19.20;60.40
24144;DHT22;12307;50.828;6.080;2023-04-01T07:11:30;19.20;60.30
24144;DHT22;12307;50.828;6.080;2023-04-01T07:14:00;19.20;60.30
24144;DHT22;12307;50.828;6.080;2023-04-01T07:16:30;19.20;60.30
24144;DHT22;12307;50.828;6.080;2023-04-01T07:18:59;19.20;60.30
24144;DHT22;12307;50.828;6.080;2023-04-01T07:21:30;19.20;60.30
24144;DHT22;12307;50.828;6.080;2023-04-01T07:24:01;19.20;60.30
24144;DHT22;12307;50.828;6.080;2023-04-01T07:26:31;19.20;60.30
24144;DHT22;12307;50.828;6.080;2023-04-01T07:28:57;19.20;60.30
24144;DHT22;12307;50.828;6.080;2023-04-01T07:31:32;19.20;60.30
24144;DHT22;12307;50.828;6.080;2023-04-01T07:34:07;19.20;60.30
24144;DHT22;12307;50.828;6.080;2023-04-01T07:36:39;19.20;60.30
24144;DHT22;12307;50.828;6.080;2023-04-01T07:39:17;19.20;60.30
24144;DHT22;12307;50.828;6.080;2023-04-01T07:41:53;19.20;60.30
24144;DHT22;12307;50.828;6.080;2023-04-01T07:44:27;19.20;60.30
24144;DHT22;12307;50.828;6.080;2023-04-01T07:47:05;19.20;60.20
24144;DHT22;12307;50.828;6.080;2023-04-01T07:49:43;19.20;60.20
24144;DHT22;12307;50.828;6.080;2023-04-01T07:52:15;19.20;60.20
24144;DHT22;12307;50.828;6.080;2023-04-01T07:54:50;19.20;60.20
24144;DHT22;12307;50.828;6.080;2023-04-01T07:57:20;19.20;60.20
24144;DHT22;12307;50.828;6.080;2023-04-01T07:59:54;19.30;60.20
24144;DHT22;12307;50.828;6.080;2023-04-01T08:02:32;19.30;60.20
24144;DHT22;12307;50.828;6.080;2023-04-01T08:05:13;19.30;60.20
24144;DHT22;12307;50.828;6.080;2023-04-01T08:07:45;19.30;60.20
24144;DHT22;12307;50.828;6.080;2023-04-01T08:10:18;19.30;60.10
24144;DHT22;12307;50.828;6.080;2023-04-01T08:12:57;19.30;60.10
24144;DHT22;12307;50.828;6.080;2023-04-01T08:15:27;19.30;60.10
24144;DHT22;12307;50.828;6.080;2023-04-01T08:18:03;19.30;60.10
24144;DHT22;12307;50.828;6.080;2023-04-01T08:20:36;19.30;60.10
24144;DHT22;12307;50.828;6.080;2023-04-01T08:23:07;19.30;60.00
24144;DHT22;12307;50.828;6.080;2023-04-01T08:25:38;19.30;60.00
24144;DHT22;12307;50.828;6.080;2023-04-01T08:28:13;19.30;60.00
24144;DHT22;12307;50.828;6.080;2023-04-01T08:30:43;19.30;60.10
24144;DHT22;12307;50.828;6.080;2023-04-01T08:33:15;19.30;60.10
24144;DHT22;12307;50.828;6.080;2023-04-01T08:35:46;19.30;60.00
24144;DHT22;12307;50.828;6.080;2023-04-01T08:38:18;19.30;60.00
24144;DHT22;12307;50.828;6.080;2023-04-01T08:41:07;19.30;60.10
24144;DHT22;12307;50.828;6.080;2023-04-01T08:43:59;19.30;60.00
24144;DHT22;12307;50.828;6.080;2023-04-01T08:46:48;19.30;60.00
24144;DHT22;12307;50.828;6.080;2023-04-01T08:49:33;19.40;60.10
24144;DHT22;12307;50.828;6.080;2023-04-01T08:52:18;19.40;60.10
24144;DHT22;12307;50.828;6.080;2023-04-01T08:57:51;19.40;60.10
24144;DHT22;12307;50.828;6.080;2023-04-01T09:00:29;19.40;60.10
24144;DHT22;12307;50.828;6.080;2023-04-01T09:06:35;19.40;60.10
24144;DHT22;12307;50.828;6.080;2023-04-01T09:09:24;19.40;60.00
24144;DHT22;12307;50.828;6.080;2023-04-01T09:12:06;19.40;60.00
24144;DHT22;12307;50.828;6.080;2023-04-01T09:14:48;19.40;60.00
24144;DHT22;12307;50.828;6.080;2023-04-01T09:20:47;19.40;59.90
24144;DHT22;12307;50.828;6.080;2023-04-01T09:23:40;19.40;59.90
24144;DHT22;12307;50.828;6.080;2023-04-01T09:26:20;19.50;59.90
24144;DHT22;12307;50.828;6.080;2023-04-01T09:28:54;19.50;59.80
24144;DHT22;12307;50.828;6.080;2023-04-01T09:31:46;19.50;59.80
24144;DHT22;12307;50.828;6.080;2023-04-01T09:34:45;19.50;59.80
24144;DHT22;12307;50.828;6.080;2023-04-01T09:37:21;19.50;59.80
24144;DHT22;12307;50.828;6.080;2023-04-01T09:40:11;19.50;59.80
24144;DHT22;12307;50.828;6.080;2023-04-01T09:42:43;19.50;59.80
24144;DHT22;12307;50.828;6.080;2023-04-01T09:45:20;19.50;59.80
24144;DHT22;12307;50.828;6.080;2023-04-01T09:47:58;19.50;59.70
24144;DHT22;12307;50.828;6.080;2023-04-01T09:50:33;19.60;59.80
24144;DHT22;12307;50.828;6.080;2023-04-01T09:53:13;19.50;59.70
24144;DHT22;12307;50.828;6.080;2023-04-01T09:59:04;19.50;59.80
24144;DHT22;12307;50.828;6.080;2023-04-01T10:01:51;19.50;59.80
24144;DHT22;12307;50.828;6.080;2023-04-01T10:04:44;19.50;59.80
24144;DHT22;12307;50.828;6.080;2023-04-01T10:13:48;19.60;59.80
24144;DHT22;12307;50.828;6.080;2023-04-01T10:16:43;19.60;59.70
24144;DHT22;12307;50.828;6.080;2023-04-01T10:22:17;19.60;59.70
24144;DHT22;12307;50.828;6.080;2023-04-01T10:25:15;19.60;59.70
24144;DHT22;12307;50.828;6.080;2023-04-01T10:28:06;19.60;59.60
24144;DHT22;12307;50.828;6.080;2023-04-01T10:31:18;19.60;59.60
24144;DHT22;12307;50.828;6.080;2023-04-01T10:34:18;19.60;59.60
24144;DHT22;12307;50.828;6.080;2023-04-01T10:36:53;19.60;59.60
24144;DHT22;12307;50.828;6.080;2023-04-01T10:39:34;19.70;59.70
24144;DHT22;12307;50.828;6.080;2023-04-01T10:45:13;19.70;59.70
24144;DHT22;12307;50.828;6.080;2023-04-01T10:51:11;19.60;59.60
24144;DHT22;12307;50.828;6.080;2023-04-01T10:56:39;19.60;59.60
24144;DHT22;12307;50.828;6.080;2023-04-01T10:59:28;19.60;59.60
24144;DHT22;12307;50.828;6.080;2023-04-01T11:08:40;19.60;59.70
24144;DHT22;12307;50.828;6.080;2023-04-01T11:14:49;19.60;59.70
24144;DHT22;12307;50.828;6.080;2023-04-01T11:17:49;19.60;59.60
24144;DHT22;12307;50.828;6.080;2023-04-01T11:20:40;19.60;59.60
24144;DHT22;12307;50.828;6.080;2023-04-01T11:23:28;19.70;59.70
24144;DHT22;12307;50.828;6.080;2023-04-01T11:26:08;19.70;59.70
24144;DHT22;12307;50.828;6.080;2023-04-01T11:28:45;19.70;59.60
24144;DHT22;12307;50.828;6.080;2023-04-01T11:31:39;19.70;59.60
24144;DHT22;12307;50.828;6.080;2023-04-01T11:34:20;19.70;59.60
24144;DHT22;12307;50.828;6.080;2023-04-01T11:36:56;19.80;59.60
24144;DHT22;12307;50.828;6.080;2023-04-01T11:39:35;19.80;59.60
24144;DHT22;12307;50.828;6.080;2023-04-01T11:42:14;19.80;59.60
24144;DHT22;12307;50.828;6.080;2023-04-01T11:44:47;19.80;59.60
24144;DHT22;12307;50.828;6.080;2023-04-01T11:47:27;19.80;59.60
24144;DHT22;12307;50.828;6.080;2023-04-01T11:50:03;19.80;59.60
24144;DHT22;12307;50.828;6.080;2023-04-01T11:52:53;19.80;59.60
24144;DHT22;12307;50.828;6.080;2023-04-01T11:55:28;19.80;59.60
24144;DHT22;12307;50.828;6.080;2023-04-01T11:58:18;19.80;60.30
24144;DHT22;12307;50.828;6.080;2023-04-01T12:01:20;19.70;59.60
24144;DHT22;12307;50.828;6.080;2023-04-01T12:04:05;19.70;59.60
24144;DHT22;12307;50.828;6.080;2023-04-01T12:06:42;19.70;59.60
24144;DHT22;12307;50.828;6.080;2023-04-01T12:09:16;19.70;59.70
24144;DHT22;12307;50.828;6.080;2023-04-01T12:11:50;19.60;59.70
24144;DHT22;12307;50.828;6.080;2023-04-01T12:14:20;19.70;59.80
24144;DHT22;12307;50.828;6.080;2023-04-01T12:17:00;19.60;59.70
24144;DHT22;12307;50.828;6.080;2023-04-01T12:19:37;19.60;59.80
24144;DHT22;12307;50.828;6.080;2023-04-01T12:22:20;19.60;59.80
24144;DHT22;12307;50.828;6.080;2023-04-01T12:24:53;19.60;59.80
24144;DHT22;12307;50.828;6.080;2023-04-01T12:27:35;19.60;59.80
24144;DHT22;12307;50.828;6.080;2023-04-01T12:33:10;19.60;59.80
24144;DHT22;12307;50.828;6.080;2023-04-01T12:35:49;19.60;59.80
24144;DHT22;12307;50.828;6.080;2023-04-01T12:38:28;19.60;59.80
24144;DHT22;12307;50.828;6.080;2023-04-01T12:41:09;19.60;59.80
24144;DHT22;12307;50.828;6.080;2023-04-01T12:44:08;19.60;59.80
24144;DHT22;12307;50.828;6.080;2023-04-01T12:46:58;19.70;59.80
24144;DHT22;12307;50.828;6.080;2023-04-01T12:49:37;19.70;59.70
24144;DHT22;12307;50.828;6.080;2023-04-01T12:52:11;19.70;59.60
24144;DHT22;12307;50.828;6.080;2023-04-01T12:55:12;19.70;59.60
24144;DHT22;12307;50.828;6.080;2023-04-01T13:00:46;19.70;59.60
24144;DHT22;12307;50.828;6.080;2023-04-01T13:06:36;19.70;59.60
24144;DHT22;12307;50.828;6.080;2023-04-01T13:09:20;19.70;59.60
24144;DHT22;12307;50.828;6.080;2023-04-01T13:12:01;19.70;59.70
24144;DHT22;12307;50.828;6.080;2023-04-01T13:17:38;19.70;59.70
24144;DHT22;12307;50.828;6.080;2023-04-01T13:20:15;19.80;59.70
24144;DHT22;12307;50.828;6.080;2023-04-01T13:22:51;19.80;59.60
24144;DHT22;12307;50.828;6.080;2023-04-01T13:25:27;19.80;59.60
24144;DHT22;12307;50.828;6.080;2023-04-01T13:28:01;19.80;59.60
24144;DHT22;12307;50.828;6.080;2023-04-01T13:30:34;19.80;59.60
24144;DHT22;12307;50.828;6.080;2023-04-01T13:33:06;19.80;59.60
24144;DHT22;12307;50.828;6.080;2023-04-01T13:35:45;19.80;59.60
24144;DHT22;12307;50.828;6.080;2023-04-01T13:38:31;19.70;59.70
24144;DHT22;12307;50.828;6.080;2023-04-01T13:41:10;19.70;60.40
24144;DHT22;12307;50.828;6.080;2023-04-01T13:43:47;19.70;59.80
24144;DHT22;12307;50.828;6.080;2023-04-01T13:46:30;19.70;59.80
24144;DHT22;12307;50.828;6.080;2023-04-01T13:55:20;19.80;59.70
24144;DHT22;12307;50.828;6.080;2023-04-01T13:57:57;19.90;59.70
24144;DHT22;12307;50.828;6.080;2023-04-01T14:00:53;19.90;59.60
24144;DHT22;12307;50.828;6.080;2023-04-01T14:06:31;19.90;59.50
24144;DHT22;12307;50.828;6.080;2023-04-01T14:12:05;19.80;59.60
24144;DHT22;12307;50.828;6.080;2023-04-01T14:14:43;19.80;59.60
24144;DHT22;12307;50.828;6.080;2023-04-01T14:17:28;19.80;59.60
24144;DHT22;12307;50.828;6.080;2023-04-01T14:20:25;19.80;59.60
24144;DHT22;12307;50.828;6.080;2023-04-01T14:23:06;19.80;59.60
24144;DHT22;12307;50.828;6.080;2023-04-01T14:25:52;19.80;59.60
24144;DHT22;12307;50.828;6.080;2023-04-01T14:28:26;19.80;59.50
24144;DHT22;12307;50.828;6.080;2023-04-01T14:33:47;19.90;59.50
24144;DHT22;12307;50.828;6.080;2023-04-01T14:36:37;19.90;59.50
24144;DHT22;12307;50.828;6.080;2023-04-01T14:39:20;19.90;59.50
24144;DHT22;12307;50.828;6.080;2023-04-01T14:41:59;20.00;59.50
24144;DHT22;12307;50.828;6.080;2023-04-01T14:44:46;20.00;59.50
24144;DHT22;12307;50.828;6.080;2023-04-01T14:47:39;20.00;59.50
24144;DHT22;12307;50.828;6.080;2023-04-01T14:50:13;20.00;59.50
24144;DHT22;12307;50.828;6.080;2023-04-01T14:52:42;20.00;59.50
24144;DHT22;12307;50.828;6.080;2023-04-01T14:55:27;20.00;59.50
24144;DHT22;12307;50.828;6.080;2023-04-01T14:58:08;20.00;59.50
24144;DHT22;12307;50.828;6.080;2023-04-01T15:00:50;19.90;59.50
24144;DHT22;12307;50.828;6.080;2023-04-01T15:03:22;19.90;59.60
24144;DHT22;12307;50.828;6.080;2023-04-01T15:05:56;19.90;59.60
24144;DHT22;12307;50.828;6.080;2023-04-01T15:08:25;19.90;59.60
24144;DHT22;12307;50.828;6.080;2023-04-01T15:11:14;19.90;59.60
24144;DHT22;12307;50.828;6.080;2023-04-01T15:14:06;19.90;59.60
24144;DHT22;12307;50.828;6.080;2023-04-01T15:16:45;19.90;59.60
24144;DHT22;12307;50.828;6.080;2023-04-01T15:19:18;19.80;59.60
24144;DHT22;12307;50.828;6.080;2023-04-01T15:22:15;19.80;59.60
24144;DHT22;12307;50.828;6.080;2023-04-01T15:24:47;19.90;59.70
24144;DHT22;12307;50.828;6.080;2023-04-01T15:27:27;19.80;59.70
24144;DHT22;12307;50.828;6.080;2023-04-01T15:30:02;19.80;59.70
24144;DHT22;12307;50.828;6.080;2023-04-01T15:32:41;19.90;59.80
24144;DHT22;12307;50.828;6.080;2023-04-01T15:35:21;19.80;59.70
24144;DHT22;12307;50.828;6.080;2023-04-01T15:37:54;19.80;59.80
24144;DHT22;12307;50.828;6.080;2023-04-01T15:40:26;19.80;59.80
24144;DHT22;12307;50.828;6.080;2023-04-01T15:43:07;19.70;59.80
24144;DHT22;12307;50.828;6.080;2023-04-01T15:45:45;19.70;59.90
24144;DHT22;12307;50.828;6.080;2023-04-01T15:48:33;19.70;59.90
24144;DHT22;12307;50.828;6.080;2023-04-01T15:51:17;19.70;60.00
24144;DHT22;12307;50.828;6.080;2023-04-01T15:54:14;19.70;60.00
24144;DHT22;12307;50.828;6.080;2023-04-01T15:56:53;19.70;60.10
24144;DHT22;12307;50.828;6.080;2023-04-01T15:59:36;19.60;60.00
24144;DHT22;12307;50.828;6.080;2023-04-01T16:02:12;19.60;60.10
24144;DHT22;12307;50.828;6.080;2023-04-01T16:04:49;19.60;60.10
24144;DHT22;12307;50.828;6.080;2023-04-01T16:07:30;19.60;60.20
24144;DHT22;12307;50.828;6.080;2023-04-01T16:10:16;19.60;60.30
24144;DHT22;12307;50.828;6.080;2023-04-01T16:12:53;19.60;60.40
24144;DHT22;12307;50.828;6.080;2023-04-01T16:15:27;19.50;60.40
24144;DHT22;12307;50.828;6.080;2023-04-01T16:18:07;19.50;60.40
24144;DHT22;12307;50.828;6.080;2023-04-01T16:20:44;19.50;60.50
24144;DHT22;12307;50.828;6.080;2023-04-01T16:23:16;19.50;60.50
24144;DHT22;12307;50.828;6.080;2023-04-01T16:25:51;19.50;60.60
24144;DHT22;12307;50.828;6.080;2023-04-01T16:28:22;19.50;60.60
24144;DHT22;12307;50.828;6.080;2023-04-01T16:30:56;19.50;60.70
24144;DHT22;12307;50.828;6.080;2023-04-01T16:33:32;19.40;60.60
24144;DHT22;12307;50.828;6.080;2023-04-01T16:36:04;19.40;60.60
24144;DHT22;12307;50.828;6.080;2023-04-01T16:38:37;19.40;60.70
24144;DHT22;12307;50.828;6.080;2023-04-01T16:41:11;19.40;60.70
24144;DHT22;12307;50.828;6.080;2023-04-01T16:43:42;19.40;60.70
24144;DHT22;12307;50.828;6.080;2023-04-01T16:46:35;19.40;61.50
24144;DHT22;12307;50.828;6.080;2023-04-01T16:49:25;19.40;60.60
24144;DHT22;12307;50.828;6.080;2023-04-01T16:51:54;19.40;60.70
24144;DHT22;12307;50.828;6.080;2023-04-01T16:54:28;19.40;60.60
24144;DHT22;12307;50.828;6.080;2023-04-01T16:57:11;19.40;60.70
24144;DHT22;12307;50.828;6.080;2023-04-01T16:59:46;19.40;60.70
24144;DHT22;12307;50.828;6.080;2023-04-01T17:02:14;19.40;60.70
24144;DHT22;12307;50.828;6.080;2023-04-01T17:04:44;19.40;60.70
24144;DHT22;12307;50.828;6.080;2023-04-01T17:07:18;19.40;60.70
24144;DHT22;12307;50.828;6.080;2023-04-01T17:09:55;19.40;60.80
24144;DHT22;12307;50.828;6.080;2023-04-01T17:12:31;19.40;60.80
24144;DHT22;12307;50.828;6.080;2023-04-01T17:15:02;19.40;60.80
24144;DHT22;12307;50.828;6.080;2023-04-01T17:17:41;19.40;60.90
24144;DHT22;12307;50.828;6.080;2023-04-01T17:20:19;19.40;61.00
24144;DHT22;12307;50.828;6.080;2023-04-01T17:22:49;19.30;61.00
24144;DHT22;12307;50.828;6.080;2023-04-01T17:25:29;19.30;61.00